Baltic Betina — 9HDW8 — position and weather

sailwx.info

Track history (hours):
 
Tides and Currents Weather Stations Pressure Air Temp Water Temp Dewpoint Dewpoint Depression Visibility Wind Speed Wind Dir Waves Ship Positions

Baltic Betina

Last reported at 2015-May-08 01:33 UTC. Time now 2015-May-28 04:09 UTC.
Position N 59°26' E 005°14'.
Warning: this ship's position is 20 days out of date.

Length 89 m; draft 4.1 m.

Type: Ship. MMSI: 215869000.

Date/timePositionNaut miles runAvg speedWind from/ knotsBaromVisibWave heightAir tempDewpointWater temp
2015-May-08 01:33N 59°26' E 005°14'5 4.6
2015-May-08 00:34N 59°22' E 005°18'1211.9
2015-May-07 23:33N 59°10' E 005°22'1010.0
2015-May-07 22:33N 59°02' E 005°33'6 6.0
2015-May-07 21:31N 58°56' E 005°35'0 0.0
2015-May-07 20:25N 58°56' E 005°35'0 0.0
2015-May-07 19:22N 58°56' E 005°35'0 0.0
2015-May-07 18:28N 58°56' E 005°35'0 0.0
2015-May-07 17:25N 58°56' E 005°35'0 0.0
2015-May-07 16:28N 58°56' E 005°35'0 0.0
2015-May-07 15:28N 58°56' E 005°35'0 0.1
2015-May-07 14:28N 58°56' E 005°35'0 0.0
2015-May-07 13:31N 58°56' E 005°35'0 0.0
2015-May-07 12:31N 58°56' E 005°35'0 0.0
2015-May-07 11:28N 58°56' E 005°35'0 0.0
2015-May-07 10:31N 58°56' E 005°35'0 0.0
2015-May-07 09:31N 58°56' E 005°35'0 0.0
2015-May-07 08:31N 58°56' E 005°35'0 0.0
2015-May-07 07:31N 58°56' E 005°35'0 0.0
2015-May-07 06:31N 58°56' E 005°35'0 0.0
2015-May-07 05:34N 58°56' E 005°35'0 0.0
2015-May-07 04:31N 58°56' E 005°35'0 0.0
2015-May-07 03:31N 58°56' E 005°35'0 0.0
2015-May-07 02:33N 58°56' E 005°35'0 0.0
2015-May-07 01:27N 58°56' E 005°35'0 0.0
2015-May-07 00:33N 58°56' E 005°35'0 0.0
2015-May-06 23:33N 58°56' E 005°35'0 0.0
2015-May-06 22:33N 58°56' E 005°35'0 0.0
2015-May-06 21:33N 58°56' E 005°35'0 0.0
2015-May-06 20:33N 58°56' E 005°35'0 0.0
2015-May-06 19:33N 58°56' E 005°35'0 0.0
2015-May-06 18:33N 58°56' E 005°35'0 0.0
2015-May-06 17:33N 58°56' E 005°35'0 0.0
2015-May-06 16:24N 58°56' E 005°35'0 0.0
2015-May-06 15:33N 58°56' E 005°35'0 0.0
2015-May-06 14:27N 58°56' E 005°35'0 0.0
2015-May-06 13:30N 58°56' E 005°35'0 0.0
2015-May-06 12:33N 58°56' E 005°35'0 0.0
2015-May-06 11:33N 58°56' E 005°35'0 0.1
2015-May-06 10:33N 58°56' E 005°35'1010.1
2015-May-06 09:34N 59°06' E 005°31'10 9.9
2015-May-06 08:33N 59°14' E 005°20'1010.5
2015-May-06 07:34N 59°24' E 005°16'84 3.0
2015-May-05 03:06N 60°48' E 005°10'79 4.4
2015-May-04 09:13N 59°30' E 005°13'6 8.2
2015-May-04 08:33N 59°24' E 005°16'0 0.0
2015-May-04 07:33N 59°24' E 005°16'0 0.0
2015-May-04 06:33N 59°24' E 005°16'0 0.0
2015-May-04 05:33N 59°24' E 005°16'0 0.0
2015-May-04 04:33N 59°24' E 005°16'0 0.0
2015-May-04 03:33N 59°24' E 005°16'0 0.0
2015-May-04 02:33N 59°24' E 005°16'0 0.0
2015-May-04 01:33N 59°24' E 005°16'0 0.0
2015-May-04 00:33N 59°24' E 005°16'0 0.0
2015-May-03 23:32N 59°24' E 005°16'0 0.0
2015-May-03 22:32N 59°24' E 005°16'0 0.0
2015-May-03 21:32N 59°24' E 005°16'0 0.0
2015-May-03 20:32N 59°24' E 005°16'0 0.0
2015-May-03 19:32N 59°24' E 005°16'0 0.0
2015-May-03 18:32N 59°24' E 005°16'0 0.0
2015-May-03 16:06N 59°24' E 005°16'6 7.5
2015-May-03 15:22N 59°30' E 005°13'18 0.6
2015-May-02 10:30N 59°46' E 005°31'  
2015-Apr-28 08:04N 62°46' E 006°57'  
Track history (hours):
 
Tides and Currents Weather Stations Pressure Air Temp Water Temp Dewpoint Dewpoint Depression Visibility Wind Speed Wind Dir Waves Ship Positions

Baltic Betina

Last reported at 2015-May-08 01:33 UTC. Time now 2015-May-28 04:09 UTC.
Position N 59°26' E 005°14'.
Warning: this ship's position is 20 days out of date.

Length 89 m; draft 4.1 m.

Type: Ship. MMSI: 215869000.

Date/timePositionNaut miles runAvg speedWind from/ knotsBaromVisibWave heightAir tempDewpointWater temp
2015-May-08 01:33N 59°26' E 005°14'5 4.6
2015-May-08 00:34N 59°22' E 005°18'1211.9
2015-May-07 23:33N 59°10' E 005°22'1010.0
2015-May-07 22:33N 59°02' E 005°33'6 6.0
2015-May-07 21:31N 58°56' E 005°35'0 0.0
2015-May-07 20:25N 58°56' E 005°35'0 0.0
2015-May-07 19:22N 58°56' E 005°35'0 0.0
2015-May-07 18:28N 58°56' E 005°35'0 0.0
2015-May-07 17:25N 58°56' E 005°35'0 0.0
2015-May-07 16:28N 58°56' E 005°35'0 0.0
2015-May-07 15:28N 58°56' E 005°35'0 0.1
2015-May-07 14:28N 58°56' E 005°35'0 0.0
2015-May-07 13:31N 58°56' E 005°35'0 0.0
2015-May-07 12:31N 58°56' E 005°35'0 0.0
2015-May-07 11:28N 58°56' E 005°35'0 0.0
2015-May-07 10:31N 58°56' E 005°35'0 0.0
2015-May-07 09:31N 58°56' E 005°35'0 0.0
2015-May-07 08:31N 58°56' E 005°35'0 0.0
2015-May-07 07:31N 58°56' E 005°35'0 0.0
2015-May-07 06:31N 58°56' E 005°35'0 0.0
2015-May-07 05:34N 58°56' E 005°35'0 0.0
2015-May-07 04:31N 58°56' E 005°35'0 0.0
2015-May-07 03:31N 58°56' E 005°35'0 0.0
2015-May-07 02:33N 58°56' E 005°35'0 0.0
2015-May-07 01:27N 58°56' E 005°35'0 0.0
2015-May-07 00:33N 58°56' E 005°35'0 0.0
2015-May-06 23:33N 58°56' E 005°35'0 0.0
2015-May-06 22:33N 58°56' E 005°35'0 0.0
2015-May-06 21:33N 58°56' E 005°35'0 0.0
2015-May-06 20:33N 58°56' E 005°35'0 0.0
2015-May-06 19:33N 58°56' E 005°35'0 0.0
2015-May-06 18:33N 58°56' E 005°35'0 0.0
2015-May-06 17:33N 58°56' E 005°35'0 0.0
2015-May-06 16:24N 58°56' E 005°35'0 0.0
2015-May-06 15:33N 58°56' E 005°35'0 0.0
2015-May-06 14:27N 58°56' E 005°35'0 0.0
2015-May-06 13:30N 58°56' E 005°35'0 0.0
2015-May-06 12:33N 58°56' E 005°35'0 0.0
2015-May-06 11:33N 58°56' E 005°35'0 0.1
2015-May-06 10:33N 58°56' E 005°35'1010.1
2015-May-06 09:34N 59°06' E 005°31'10 9.9
2015-May-06 08:33N 59°14' E 005°20'1010.5
2015-May-06 07:34N 59°24' E 005°16'84 3.0
2015-May-05 03:06N 60°48' E 005°10'79 4.4
2015-May-04 09:13N 59°30' E 005°13'6 8.2
2015-May-04 08:33N 59°24' E 005°16'0 0.0
2015-May-04 07:33N 59°24' E 005°16'0 0.0
2015-May-04 06:33N 59°24' E 005°16'0 0.0
2015-May-04 05:33N 59°24' E 005°16'0 0.0
2015-May-04 04:33N 59°24' E 005°16'0 0.0
2015-May-04 03:33N 59°24' E 005°16'0 0.0
2015-May-04 02:33N 59°24' E 005°16'0 0.0
2015-May-04 01:33N 59°24' E 005°16'0 0.0
2015-May-04 00:33N 59°24' E 005°16'0 0.0
2015-May-03 23:32N 59°24' E 005°16'0 0.0
2015-May-03 22:32N 59°24' E 005°16'0 0.0
2015-May-03 21:32N 59°24' E 005°16'0 0.0
2015-May-03 20:32N 59°24' E 005°16'0 0.0
2015-May-03 19:32N 59°24' E 005°16'0 0.0
2015-May-03 18:32N 59°24' E 005°16'0 0.0
2015-May-03 16:06N 59°24' E 005°16'6 7.5
2015-May-03 15:22N 59°30' E 005°13'18 0.6
2015-May-02 10:30N 59°46' E 005°31'  
2015-Apr-28 08:04N 62°46' E 006°57'  

Dump ship's entire track history